Time;durP1;ratioP1;P1;durP2;ratioP2;P2;SDS_P1;SDS_P2;PMS_P1;PMS_P2;Temp;Humidity;BMP_temperature;BMP_pressure;BME280_temperature;BME280_humidity;BME280_pressure;Samples;Min_cycle;Max_cycle;Signal;HPM_P1;HPM_P2
2022/10/31 00:02:05;;;;;;;90.20;84.95;;;;;;;15.84;74.86;101266.13;5010948;28;103882;-50
2022/10/31 00:04:34;;;;;;;97.28;91.65;;;;;;;15.85;74.61;101261.47;4997388;28;102568;-50
2022/10/31 00:07:00;;;;;;;91.25;85.93;;;;;;;15.84;74.84;101259.84;5003893;28;102302;-50
2022/10/31 00:09:32;;;;;;;87.75;82.68;;;;;;;15.84;74.60;101257.09;4997679;28;102168;-50
2022/10/31 00:11:58;;;;;;;85.07;80.03;;;;;;;15.85;74.60;101264.19;4995450;28;104206;-50
2022/10/31 00:14:25;;;;;;;91.43;86.15;;;;;;;15.86;74.38;101260.34;5011863;28;102345;-50
2022/10/31 00:16:52;;;;;;;92.25;86.97;;;;;;;15.84;74.78;101257.09;5012574;28;102014;-50
2022/10/31 00:19:20;;;;;;;100.05;94.22;;;;;;;15.84;74.28;101259.84;5016356;28;102657;-50
2022/10/31 00:21:51;;;;;;;83.63;78.80;;;;;;;15.85;74.65;101258.72;5015164;28;104050;-50
2022/10/31 00:24:21;;;;;;;102.18;96.50;;;;;;;15.83;74.28;101249.94;5016709;28;102395;-50
2022/10/31 00:26:52;;;;;;;87.05;81.97;;;;;;;15.83;74.56;101255.44;5010710;28;102394;-50
2022/10/31 00:29:20;;;;;;;84.53;79.50;;;;;;;15.84;74.24;101257.09;4997382;28;102291;-50
2022/10/31 00:31:47;;;;;;;93.40;88.15;;;;;;;15.84;74.34;101257.09;5001133;28;103472;-50
2022/10/31 00:34:14;;;;;;;96.65;91.20;;;;;;;15.84;74.38;101259.84;5008736;28;102438;-50
2022/10/31 00:36:45;;;;;;;91.05;85.97;;;;;;;15.85;74.46;101256.78;5015275;28;102378;-50
2022/10/31 00:39:11;;;;;;;97.35;91.88;;;;;;;15.84;74.45;101257.09;5017179;28;102463;-50
2022/10/31 00:41:38;;;;;;;92.57;87.43;;;;;;;15.84;74.29;101257.09;5015352;28;103912;-50
2022/10/31 00:44:05;;;;;;;93.68;88.43;;;;;;;15.85;74.58;101253.22;5015703;28;102271;-50
2022/10/31 00:46:32;;;;;;;90.93;85.78;;;;;;;15.84;74.51;101257.09;5013319;28;103536;-50
2022/10/31 00:48:59;;;;;;;91.10;85.93;;;;;;;15.85;74.23;101256.78;4996699;28;102272;-50
2022/10/31 00:51:25;;;;;;;92.13;86.97;;;;;;;15.84;74.27;101257.91;4996794;28;103986;-50
2022/10/31 00:53:53;;;;;;;89.00;83.75;;;;;;;15.83;74.27;101255.44;5015492;28;102600;-50
2022/10/31 00:56:20;;;;;;;102.75;97.03;;;;;;;15.84;74.32;101249.66;5010981;28;102186;-50
2022/10/31 00:58:47;;;;;;;91.20;85.82;;;;;;;15.83;74.61;101245.28;5016189;28;103003;-50
2022/10/31 01:01:13;;;;;;;84.85;79.80;;;;;;;15.84;74.29;101249.66;5012482;28;104835;-50
2022/10/31 01:03:40;;;;;;;96.07;90.57;;;;;;;15.83;74.78;101242.56;5015861;28;102302;-50
2022/10/31 01:06:08;;;;;;;85.57;80.85;;;;;;;15.83;74.25;101233.47;5015452;28;102187;-51
2022/10/31 01:08:39;;;;;;;87.60;82.60;;;;;;;15.83;74.28;101237.06;5005220;28;102095;-50
2022/10/31 01:11:11;;;;;;;94.88;89.32;;;;;;;15.84;74.53;101237.88;5014617;28;103853;-50
2022/10/31 01:13:38;;;;;;;93.25;88.05;;;;;;;15.84;74.57;101240.63;5005242;28;102274;-50
2022/10/31 01:16:07;;;;;;;92.72;87.60;;;;;;;15.83;74.75;101238.97;4995559;28;102410;-50
2022/10/31 01:18:34;;;;;;;87.70;82.72;;;;;;;15.84;74.74;101243.38;5011940;28;102141;-50
2022/10/31 01:21:02;;;;;;;86.68;81.88;;;;;;;15.83;74.90;101233.47;5014589;28;103973;-50
2022/10/31 01:23:30;;;;;;;89.38;84.40;;;;;;;15.84;75.16;101241.44;5015200;28;102240;-50
2022/10/31 01:26:07;;;;;;;98.95;93.38;;;;;;;15.83;75.06;101236.22;5015546;28;102713;-50
2022/10/31 01:28:35;;;;;;;91.97;86.78;;;;;;;15.84;74.79;101246.09;5010587;28;102752;-50
2022/10/31 01:31:06;;;;;;;91.00;85.88;;;;;;;15.83;74.83;101238.97;5014983;28;104043;-50
2022/10/31 01:33:35;;;;;;;90.10;84.97;;;;;;;15.82;74.79;101231.84;5015586;28;102429;-50
2022/10/31 01:36:11;;;;;;;86.93;82.10;;;;;;;15.83;74.65;101228.00;5014922;28;102317;-50
2022/10/31 01:38:38;;;;;;;100.78;95.15;;;;;;;15.84;74.54;101226.91;5016278;28;102058;-50
2022/10/31 01:41:05;;;;;;;89.70;84.63;;;;;;;15.84;74.48;101229.63;5003639;28;104008;-50
2022/10/31 01:43:50;;;;;;;97.15;91.70;;;;;;;15.84;74.53;101229.63;5000054;28;102184;-50
2022/10/31 01:46:22;;;;;;;95.10;89.70;;;;;;;15.83;74.76;101222.50;5012716;28;102232;-50
2022/10/31 01:48:49;;;;;;;90.80;85.63;;;;;;;15.83;74.83;101225.25;5011890;28;102294;-50
2022/10/31 01:51:18;;;;;;;97.43;92.03;;;;;;;15.83;74.91;101228.00;4994822;28;103971;-50
2022/10/31 01:53:46;;;;;;;97.53;92.07;;;;;;;15.83;74.96;101228.00;4995033;28;102166;-50
2022/10/31 01:56:16;;;;;;;97.07;91.90;;;;;;;15.83;74.83;101228.00;5005465;28;102250;-50
2022/10/31 01:58:44;;;;;;;97.32;91.82;;;;;;;15.83;74.90;101225.25;5011020;28;102516;-50
2022/10/31 02:01:14;;;;;;;94.13;88.78;;;;;;;15.83;74.53;101222.50;5014444;28;103973;-50
2022/10/31 02:03:41;;;;;;;93.05;87.70;;;;;;;15.82;75.01;101218.13;5011145;28;102698;-50
2022/10/31 02:06:14;;;;;;;95.40;90.15;;;;;;;15.82;74.99;101216.19;5005833;28;102362;-50
2022/10/31 02:08:42;;;;;;;92.90;87.75;;;;;;;15.81;74.65;101225.56;5017270;28;102562;-50
2022/10/31 02:11:10;;;;;;;81.77;76.97;;;;;;;15.82;74.89;101229.09;5017233;28;104225;-50
2022/10/31 02:13:37;;;;;;;93.50;88.18;;;;;;;15.82;74.92;101229.09;5017705;28;102689;-51
2022/10/31 02:16:04;;;;;;;97.22;91.32;;;;;;;15.81;74.44;101225.56;5018637;28;102298;-50
2022/10/31 02:18:33;;;;;;;94.72;89.43;;;;;;;15.82;75.04;101226.38;5017935;28;102137;-50
2022/10/31 02:21:10;;;;;;;96.57;91.03;;;;;;;15.82;75.18;101218.13;5016691;28;103897;-50
2022/10/31 02:24:08;;;;;;;93.85;88.47;;;;;;;15.82;75.11;101226.38;5017266;28;102091;-50
2022/10/31 02:26:52;;;;;;;89.90;84.97;;;;;;;15.82;74.78;101232.66;5017579;28;102007;-50
2022/10/31 02:29:51;;;;;;;89.55;84.47;;;;;;;15.82;74.60;101231.84;5008596;28;102146;-50
2022/10/31 02:32:25;;;;;;;89.70;84.68;;;;;;;15.82;74.64;101234.59;5006159;28;104363;-50
2022/10/31 02:35:01;;;;;;;88.88;83.75;;;;;;;15.82;74.92;101234.59;4998323;28;102263;-50
2022/10/31 02:37:37;;;;;;;96.15;90.68;;;;;;;15.81;74.97;101239.28;5007608;28;102366;-50
2022/10/31 02:40:12;;;;;;;87.90;82.82;;;;;;;15.82;74.80;101231.84;5017335;28;102233;-50
2022/10/31 02:42:48;;;;;;;90.53;85.60;;;;;;;15.80;75.05;101232.16;4997143;28;103836;-50
2022/10/31 02:45:25;;;;;;;100.70;95.13;;;;;;;15.80;75.12;101231.34;4997497;28;102065;-50
2022/10/31 02:47:58;;;;;;;89.43;84.40;;;;;;;15.80;74.77;101237.66;4997764;28;102461;-50
2022/10/31 02:50:30;;;;;;;94.32;88.97;;;;;;;15.81;74.61;101224.75;5016805;28;102322;-50
2022/10/31 02:52:57;;;;;;;85.18;80.38;;;;;;;15.80;75.21;101226.66;5016540;28;103913;-50
2022/10/31 02:55:49;;;;;;;91.32;86.28;;;;;;;15.79;74.90;101227.75;5016489;28;102406;-50
2022/10/31 02:58:21;;;;;;;89.80;84.88;;;;;;;15.81;75.07;101238.47;5011202;28;102223;-50
2022/10/31 03:01:00;;;;;;;90.60;85.43;;;;;;;15.80;74.62;101239.56;5003368;28;102466;-50
2022/10/31 03:03:37;;;;;;;95.05;89.82;;;;;;;15.80;74.85;101248.63;5013539;28;103968;-50
2022/10/31 03:06:14;;;;;;;88.90;83.95;;;;;;;15.80;75.04;101245.88;5017405;28;102153;-50
2022/10/31 03:08:50;;;;;;;96.68;91.28;;;;;;;15.80;74.76;101239.56;5010130;28;102517;-50
2022/10/31 03:11:22;;;;;;;91.15;86.03;;;;;;;15.80;75.03;101245.06;5007764;28;102196;-50
2022/10/31 03:13:57;;;;;;;97.60;92.13;;;;;;;15.79;74.60;101246.97;5002090;28;103918;-50
2022/10/31 03:16:29;;;;;;;88.45;83.32;;;;;;;15.80;74.55;101247.81;4998482;28;102709;-50
2022/10/31 03:19:04;;;;;;;95.47;89.95;;;;;;;15.80;74.60;101245.06;4998730;28;102196;-50
2022/10/31 03:21:36;;;;;;;93.20;88.03;;;;;;;15.80;74.73;101254.13;5018013;28;102247;-50
2022/10/31 03:24:06;;;;;;;89.15;84.18;;;;;;;15.79;74.44;101249.72;5016253;28;103977;-50
2022/10/31 03:26:35;;;;;;;98.28;92.78;;;;;;;15.80;74.84;101251.38;5016510;28;102712;-50
2022/10/31 03:29:06;;;;;;;94.63;89.32;;;;;;;15.80;74.64;101254.13;5006202;28;102520;-50
2022/10/31 03:31:37;;;;;;;91.72;86.57;;;;;;;15.79;74.68;101240.66;5017473;28;102194;-50
2022/10/31 03:34:07;;;;;;;97.50;92.18;;;;;;;15.78;74.69;101234.38;5004296;28;104355;-50
2022/10/31 03:36:38;;;;;;;97.55;92.03;;;;;;;15.79;74.58;101237.91;4997480;28;102412;-50
2022/10/31 03:39:08;;;;;;;91.03;86.05;;;;;;;15.78;74.60;101242.59;5006335;28;102052;-50
2022/10/31 03:41:41;;;;;;;85.93;81.13;;;;;;;15.80;74.50;101239.56;5017620;28;102400;-50
2022/10/31 03:44:12;;;;;;;82.32;77.63;;;;;;;15.80;74.74;101250.56;5014513;28;103948;-50
2022/10/31 03:46:38;;;;;;;82.38;77.78;;;;;;;15.79;74.87;101254.38;5016748;28;102487;-50
2022/10/31 03:49:07;;;;;;;96.47;91.03;;;;;;;15.79;74.55;101248.91;5011733;28;102551;-50
2022/10/31 03:51:40;;;;;;;97.70;92.13;;;;;;;15.79;74.92;101243.41;4999473;28;103143;-50
2022/10/31 03:54:14;;;;;;;96.63;91.25;;;;;;;15.80;74.60;101239.56;4996481;28;104017;-50
2022/10/31 03:56:44;;;;;;;92.55;87.55;;;;;;;15.79;74.88;101243.41;4996516;28;102405;-50
2022/10/31 03:59:17;;;;;;;94.72;89.50;;;;;;;15.79;74.97;101246.16;5007164;28;101955;-50
2022/10/31 04:01:51;;;;;;;86.50;81.72;;;;;;;15.78;74.44;101241.78;5017380;28;102469;-50
2022/10/31 04:04:20;;;;;;;92.93;87.68;;;;;;;15.79;74.53;101235.19;5012249;28;103854;-50
2022/10/31 04:06:49;;;;;;;88.53;83.68;;;;;;;15.80;74.51;101239.56;4996864;28;102117;-50
2022/10/31 04:09:18;;;;;;;90.22;85.18;;;;;;;15.79;74.49;101226.94;5011048;28;102050;-50
2022/10/31 04:11:56;;;;;;;;;;;;;;;15.79;74.96;101229.69;5017462;28;102275;-50
2022/10/31 04:14:26;;;;;;;89.57;84.45;;;;;;;15.79;74.73;101232.44;5015624;28;103907;-50
2022/10/31 04:16:54;;;;;;;97.45;91.95;;;;;;;15.80;74.99;101225.84;5012813;28;102413;-50
2022/10/31 04:19:22;;;;;;;96.22;90.72;;;;;;;15.78;74.80;101217.09;4999786;28;102191;-50
2022/10/31 04:21:50;;;;;;;92.22;87.03;;;;;;;15.79;74.72;101221.47;5005712;28;102224;-50
2022/10/31 04:24:17;;;;;;;92.75;87.63;;;;;;;15.78;74.62;101225.31;5015367;28;108040;-51
2022/10/31 04:26:43;;;;;;;91.07;85.95;;;;;;;15.79;74.73;101237.91;5014918;28;102286;-50
2022/10/31 04:29:10;;;;;;;98.07;92.55;;;;;;;15.78;74.83;101230.81;4997403;28;102016;-50
2022/10/31 04:31:36;;;;;;;89.80;84.72;;;;;;;15.79;74.80;101232.44;5002697;28;103075;-50
2022/10/31 04:34:04;;;;;;;102.47;96.85;;;;;;;15.78;74.92;101237.09;5010577;28;103940;-50
2022/10/31 04:36:32;;;;;;;90.07;85.13;;;;;;;15.79;74.58;101246.16;5016229;28;102271;-51
2022/10/31 04:38:58;;;;;;;89.87;84.83;;;;;;;15.78;74.61;101247.28;5015378;28;102404;-50
2022/10/31 04:41:25;;;;;;;93.10;87.80;;;;;;;15.79;74.75;101259.88;5016521;28;102490;-50
2022/10/31 04:43:52;;;;;;;88.80;83.93;;;;;;;15.78;75.17;101255.50;5015728;28;103854;-50
2022/10/31 04:46:18;;;;;;;103.22;97.45;;;;;;;15.77;75.08;101251.94;5015911;28;102430;-50
2022/10/31 04:48:46;;;;;;;94.65;89.30;;;;;;;15.78;74.73;101258.25;5007890;28;102125;-50
2022/10/31 04:51:12;;;;;;;98.45;92.90;;;;;;;15.77;74.84;101256.63;5016648;28;102815;-50
2022/10/31 04:53:41;;;;;;;90.18;85.10;;;;;;;15.77;74.81;101260.19;5015270;28;104118;-50
2022/10/31 04:56:07;;;;;;;101.37;95.80;;;;;;;15.77;75.09;101262.13;5014199;28;102467;-50
2022/10/31 04:58:34;;;;;;;94.57;89.18;;;;;;;15.76;74.90;101258.56;5012350;28;102261;-50
2022/10/31 05:01:00;;;;;;;97.25;91.90;;;;;;;15.77;74.57;101273.09;5007118;28;102251;-50
2022/10/31 05:03:26;;;;;;;95.05;89.72;;;;;;;15.77;74.95;101278.56;5011991;28;103905;-50
2022/10/31 05:05:54;;;;;;;92.32;87.03;;;;;;;15.75;74.90;101270.63;5014787;28;102384;-50
2022/10/31 05:08:21;;;;;;;98.05;92.60;;;;;;;15.76;74.79;101265.94;5015412;28;102270;-50
2022/10/31 05:10:51;;;;;;;87.30;82.25;;;;;;;15.76;74.97;101275.03;5016068;28;102319;-50
2022/10/31 05:13:19;;;;;;;99.05;93.45;;;;;;;15.76;74.71;101277.75;5003270;28;104109;-50
2022/10/31 05:15:46;;;;;;;91.57;86.50;;;;;;;15.77;74.62;101281.31;5014188;28;102310;-50
2022/10/31 05:18:12;;;;;;;93.03;87.90;;;;;;;15.77;75.02;101287.63;5015165;28;102048;-50
2022/10/31 05:20:39;;;;;;;91.90;86.82;;;;;;;15.77;74.83;101286.81;5015214;28;102281;-50
2022/10/31 05:23:05;;;;;;;90.45;85.35;;;;;;;15.77;74.50;101289.56;4996293;28;104338;-50
2022/10/31 05:25:33;;;;;;;97.68;92.18;;;;;;;15.77;75.09;101292.31;5009579;28;102275;-50
2022/10/31 05:28:01;;;;;;;96.15;90.82;;;;;;;15.77;74.67;101287.63;5010752;28;102238;-50
2022/10/31 05:30:29;;;;;;;96.55;91.10;;;;;;;15.76;74.73;101293.38;5007856;28;102392;-50
2022/10/31 05:32:56;;;;;;;99.47;93.80;;;;;;;15.76;75.03;101296.13;5015174;28;103857;-50
2022/10/31 05:35:25;;;;;;;97.95;92.50;;;;;;;15.76;74.73;101299.72;5010380;28;102219;-50
2022/10/31 05:37:51;;;;;;;99.40;93.80;;;;;;;15.76;74.96;101304.38;5001992;28;102253;-50
2022/10/31 05:40:19;;;;;;;92.95;87.75;;;;;;;15.76;74.75;101305.22;5008646;28;103031;-50
2022/10/31 05:42:47;;;;;;;;;;;;;;;15.76;75.00;101309.84;5017366;28;104186;-50
2022/10/31 05:45:16;;;;;;;79.07;74.70;;;;;;;15.76;75.08;101307.94;5012579;28;102265;-50
2022/10/31 05:47:50;;;;;;;93.22;87.85;;;;;;;15.76;74.77;101309.84;5008109;28;102451;-50
2022/10/31 05:50:17;;;;;;;94.13;88.85;;;;;;;15.76;74.87;101321.69;5005843;28;102266;-50
2022/10/31 05:52:43;;;;;;;92.63;87.35;;;;;;;15.78;74.92;101329.59;5009310;28;104044;-50
2022/10/31 05:55:10;;;;;;;89.95;85.00;;;;;;;15.77;75.36;101330.72;5016698;28;101982;-50
2022/10/31 05:57:37;;;;;;;100.47;94.82;;;;;;;15.75;75.01;101336.47;5010745;28;102157;-50
2022/10/31 06:00:05;;;;;;;101.40;95.85;;;;;;;15.77;74.94;101341.69;5011474;28;102153;-50
2022/10/31 06:02:34;;;;;;;89.03;83.97;;;;;;;15.76;75.23;101337.28;5018090;28;103997;-50
2022/10/31 06:05:00;;;;;;;88.97;83.93;;;;;;;15.76;75.34;101340.88;5014502;28;105134;-50
2022/10/31 06:07:32;;;;;;;90.80;85.72;;;;;;;15.77;75.09;101338.97;5011059;28;102081;-50
2022/10/31 06:09:59;;;;;;;93.18;88.03;;;;;;;15.76;74.78;101337.28;5005488;28;102078;-50
2022/10/31 06:12:28;;;;;;;89.97;84.95;;;;;;;15.76;74.63;101338.13;5017905;28;104070;-50
2022/10/31 06:14:55;;;;;;;91.47;86.43;;;;;;;15.77;75.02;101333.47;5013080;28;102338;-50
2022/10/31 06:17:21;;;;;;;93.13;87.88;;;;;;;15.76;75.12;101331.81;5004381;28;102147;-50
2022/10/31 06:19:49;;;;;;;107.93;102.05;;;;;;;15.77;75.11;101341.69;5008368;28;102198;-50
2022/10/31 06:22:16;;;;;;;95.78;90.38;;;;;;;15.77;74.92;101349.94;5010530;28;104295;-50
2022/10/31 06:24:43;;;;;;;98.00;92.35;;;;;;;15.78;74.83;101351.56;5007218;28;102334;-50
2022/10/31 06:27:10;;;;;;;100.70;95.18;;;;;;;15.76;74.79;101348.28;5013231;28;102251;-50
2022/10/31 06:29:36;;;;;;;98.20;92.72;;;;;;;15.77;74.97;101349.94;5011287;28;102155;-50
2022/10/31 06:32:03;;;;;;;96.60;91.22;;;;;;;15.77;74.82;101356.22;5009296;28;104882;-50
2022/10/31 06:34:29;;;;;;;96.55;91.25;;;;;;;15.78;75.05;101349.63;5014240;28;102124;-50
2022/10/31 06:36:57;;;;;;;102.00;96.18;;;;;;;15.78;75.40;101351.56;5015835;28;102207;-50
2022/10/31 06:39:24;;;;;;;103.15;97.47;;;;;;;15.79;75.01;101355.94;5005102;28;102346;-50
2022/10/31 06:41:50;;;;;;;95.07;89.85;;;;;;;15.79;75.38;101347.69;5006478;28;103865;-50
2022/10/31 06:44:17;;;;;;;86.13;81.22;;;;;;;15.78;75.20;101340.59;5017261;28;102201;-50
2022/10/31 06:46:46;;;;;;;100.97;95.35;;;;;;;15.79;74.91;101342.22;5005295;28;102259;-50
2022/10/31 06:49:12;;;;;;;94.50;89.20;;;;;;;15.79;75.16;101342.22;5008791;28;102207;-50
2022/10/31 06:51:39;;;;;;;96.53;91.13;;;;;;;15.80;75.35;101350.16;5009423;28;104508;-50
2022/10/31 06:54:06;;;;;;;98.65;92.60;;;;;;;15.81;75.23;101349.06;5010280;28;102189;-50
2022/10/31 06:56:33;;;;;;;97.82;92.22;;;;;;;15.81;75.69;101345.50;5016617;28;102413;-51
2022/10/31 06:58:59;;;;;;;102.90;97.00;;;;;;;15.82;75.60;101344.38;5018974;28;102191;-51
2022/10/31 07:01:26;;;;;;;94.32;88.93;;;;;;;15.82;75.35;101352.59;5016986;28;104872;-50
2022/10/31 07:03:52;;;;;;;97.78;92.18;;;;;;;15.82;75.57;101349.88;5001603;28;102269;-51
2022/10/31 07:06:19;;;;;;;90.13;85.13;;;;;;;15.83;75.54;101348.75;5016217;28;102468;-51
2022/10/31 07:08:46;;;;;;;99.53;93.68;;;;;;;15.83;75.50;101333.13;5007865;28;102639;-50
2022/10/31 07:11:14;;;;;;;99.25;93.68;;;;;;;15.82;74.91;101347.94;5003535;28;103917;-50
2022/10/31 07:13:41;;;;;;;103.65;97.72;;;;;;;15.85;74.95;101346.53;5010634;28;102239;-50
2022/10/31 07:16:08;;;;;;;89.63;84.60;;;;;;;15.84;75.06;101355.88;5013496;28;102563;-50
2022/10/31 07:18:34;;;;;;;88.57;83.60;;;;;;;15.85;75.07;101346.53;5017450;28;102301;-50
2022/10/31 07:21:03;;;;;;;105.18;99.35;;;;;;;15.87;74.98;101349.81;5016128;28;103960;-50
2022/10/31 07:23:30;;;;;;;93.82;88.40;;;;;;;15.86;74.93;101348.16;5008282;28;102712;-50
2022/10/31 07:25:57;;;;;;;89.15;83.85;;;;;;;15.86;74.64;101338.00;5016091;28;102238;-50
2022/10/31 07:28:26;;;;;;;99.32;93.82;;;;;;;15.88;74.75;101334.16;5008162;28;103558;-50
2022/10/31 07:30:53;;;;;;;;;;;;;;;15.88;75.02;101345.97;5016617;28;104201;-50
2022/10/31 07:33:19;;;;;;;97.28;91.72;;;;;;;15.89;74.69;101350.34;5015586;28;102363;-50
2022/10/31 07:35:46;;;;;;;93.85;88.60;;;;;;;15.89;74.80;101347.59;5016412;28;101936;-50
2022/10/31 07:38:14;;;;;;;103.15;97.55;;;;;;;15.91;74.63;101344.56;5017551;28;102237;-50
2022/10/31 07:40:42;;;;;;;93.85;88.60;;;;;;;15.92;74.63;101346.19;5011356;28;103929;-50
2022/10/31 07:43:10;;;;;;;95.38;90.05;;;;;;;15.93;74.62;101336.84;5015575;28;102010;-50
2022/10/31 07:45:38;;;;;;;97.03;91.43;;;;;;;15.93;74.62;101340.41;5009752;28;102247;-50
2022/10/31 07:48:05;;;;;;;98.80;93.30;;;;;;;15.94;74.42;101344.81;4984816;28;102288;-50
2022/10/31 07:50:35;;;;;;;99.28;93.85;;;;;;;15.93;74.65;101340.41;4995294;28;103904;-50
2022/10/31 07:53:04;;;;;;;93.68;88.38;;;;;;;15.94;74.82;101342.06;4987419;28;102470;-50
2022/10/31 07:55:32;;;;;;;97.65;92.20;;;;;;;15.95;74.25;101343.69;4995518;28;102213;-50
2022/10/31 07:57:59;;;;;;;88.90;83.85;;;;;;;15.94;74.55;101339.31;4995855;28;102220;-50
2022/10/31 08:00:26;;;;;;;90.47;85.53;;;;;;;15.94;74.83;101336.56;4990434;28;104100;-50
2022/10/31 08:03:02;;;;;;;91.45;86.32;;;;;;;15.95;74.61;101351.91;5007214;28;102288;-50
2022/10/31 08:05:29;;;;;;;94.88;89.70;;;;;;;15.95;74.27;101338.19;4993547;28;102306;-50
2022/10/31 08:07:57;;;;;;;92.65;87.65;;;;;;;15.97;74.88;101337.88;4991572;28;102224;-50
2022/10/31 08:10:27;;;;;;;90.88;85.60;;;;;;;15.96;74.32;101337.06;4991240;28;103973;-51
2022/10/31 08:12:57;;;;;;;89.70;84.72;;;;;;;15.96;74.52;101347.25;4988735;28;102502;-50
2022/10/31 08:15:24;;;;;;;95.57;90.13;;;;;;;15.96;74.60;101342.56;4988187;28;103652;-50
2022/10/31 08:17:51;;;;;;;91.68;86.65;;;;;;;15.98;74.25;101345.03;4993599;28;102518;-50
2022/10/31 08:20:19;;;;;;;91.35;86.10;;;;;;;15.97;74.20;101344.19;4988881;28;103919;-50
2022/10/31 08:22:54;;;;;;;93.07;87.95;;;;;;;15.98;74.38;101340.38;4992932;28;102153;-50
2022/10/31 08:25:22;;;;;;;89.45;84.50;;;;;;;15.98;74.10;101336.81;4991326;28;102237;-50
2022/10/31 08:27:50;;;;;;;92.32;86.97;;;;;;;15.99;74.34;101347.47;4994268;28;102184;-50
2022/10/31 08:30:17;;;;;;;85.35;80.72;;;;;;;15.98;74.48;101343.09;4983218;28;103819;-50
2022/10/31 08:32:45;;;;;;;89.25;84.32;;;;;;;15.99;74.31;101346.66;4986241;28;102299;-50
2022/10/31 08:35:12;;;;;;;89.88;84.97;;;;;;;15.97;74.78;101341.44;4977284;28;102122;-50
2022/10/31 08:37:41;;;;;;;94.97;89.85;;;;;;;15.96;74.34;101353.56;4989987;28;104114;-50
2022/10/31 08:40:09;;;;;;;96.38;91.03;;;;;;;15.96;74.26;101364.53;4981513;28;104017;-50
2022/10/31 08:42:36;;;;;;;90.13;85.13;;;;;;;15.96;74.38;101367.28;4989377;28;102470;-50
2022/10/31 08:45:03;;;;;;;89.13;84.15;;;;;;;15.94;74.43;101355.78;4993182;28;102338;-50
2022/10/31 08:47:29;;;;;;;95.35;90.10;;;;;;;15.95;74.15;101362.91;4995569;28;102188;-51
2022/10/31 08:49:56;;;;;;;86.65;81.60;;;;;;;15.94;74.61;101365.91;4995344;28;103919;-50
2022/10/31 08:52:24;;;;;;;92.95;87.70;;;;;;;15.93;74.05;101365.09;4990729;28;102487;-50
2022/10/31 08:54:52;;;;;;;92.22;87.13;;;;;;;15.92;74.36;101363.47;4988268;28;102281;-50
2022/10/31 08:57:18;;;;;;;85.53;80.70;;;;;;;15.93;74.18;101361.53;4984511;28;104520;-50
2022/10/31 08:59:45;;;;;;;95.78;90.40;;;;;;;15.92;74.32;101363.47;4991814;28;103813;-50
2022/10/31 09:02:12;;;;;;;94.97;89.72;;;;;;;15.92;74.06;101366.22;4991044;28;102325;-51
2022/10/31 09:04:39;;;;;;;90.47;85.53;;;;;;;15.94;74.35;101363.19;4984115;28;102211;-50
2022/10/31 09:07:06;;;;;;;94.60;89.15;;;;;;;15.94;74.38;101366.75;4992267;28;102238;-50
2022/10/31 09:09:34;;;;;;;88.32;83.50;;;;;;;15.95;74.17;101373.06;4992075;28;104053;-50
2022/10/31 09:12:02;;;;;;;95.63;90.15;;;;;;;15.93;74.45;101365.09;4991713;28;102467;-50
2022/10/31 09:14:29;;;;;;;88.80;83.90;;;;;;;15.93;74.12;101376.09;4985045;28;102310;-50
2022/10/31 09:16:56;;;;;;;91.40;86.40;;;;;;;15.94;74.04;101374.16;4982965;28;102138;-50
2022/10/31 09:19:25;;;;;;;84.78;80.00;;;;;;;15.94;73.79;101376.91;4993030;28;104133;-50
2022/10/31 09:21:53;;;;;;;86.47;81.72;;;;;;;15.93;74.06;101381.56;4990158;28;102224;-50
2022/10/31 09:24:20;;;;;;;88.03;83.22;;;;;;;15.94;73.78;101377.75;4994543;28;103085;-50
2022/10/31 09:26:50;;;;;;;85.88;81.18;;;;;;;15.94;73.85;101374.16;4988926;28;102596;-50
2022/10/31 09:29:17;;;;;;;84.85;80.07;;;;;;;15.94;73.61;101383.25;4983985;28;104134;-50
2022/10/31 09:31:44;;;;;;;93.95;88.70;;;;;;;15.94;73.81;101377.75;4983952;28;104354;-50
2022/10/31 09:34:11;;;;;;;78.40;73.93;;;;;;;15.92;74.15;101379.13;4974924;28;102265;-50
2022/10/31 09:36:39;;;;;;;85.80;81.07;;;;;;;15.91;73.48;101372.84;4990102;28;102801;-50
2022/10/31 09:39:07;;;;;;;84.07;79.35;;;;;;;15.92;73.99;101379.94;4994527;28;103955;-50
2022/10/31 09:41:50;;;;;;;90.53;85.63;;;;;;;15.91;73.51;101378.31;4981607;28;102751;-50
2022/10/31 09:44:26;;;;;;;85.07;80.45;;;;;;;15.91;73.70;101380.25;4990337;28;102250;-49
2022/10/31 09:47:00;;;;;;;78.60;73.95;;;;;;;15.91;73.64;101372.84;4989616;28;102318;-50
2022/10/31 09:49:58;;;;;;;81.93;77.38;;;;;;;15.92;73.83;101382.69;4993617;28;103815;-50
2022/10/31 09:52:32;;;;;;;81.18;76.75;;;;;;;15.90;73.81;101373.91;4978942;28;102296;-49
2022/10/31 09:55:05;;;;;;;83.68;79.05;;;;;;;15.90;73.86;101375.84;4990192;28;102231;-50
2022/10/31 09:57:35;;;;;;;81.53;77.07;;;;;;;15.91;73.23;101377.50;4994578;28;102463;-49
2022/10/31 10:00:04;;;;;;;78.55;74.15;;;;;;;15.91;73.40;101380.25;5003280;28;103952;-50
2022/10/31 10:02:35;;;;;;;87.50;82.68;;;;;;;15.90;73.13;101365.69;4982990;28;102303;-50
2022/10/31 10:05:04;;;;;;;78.88;74.43;;;;;;;15.90;73.22;101365.69;4979879;28;102217;-51
2022/10/31 10:07:40;;;;;;;82.35;77.85;;;;;;;15.91;73.21;101372.84;4994330;28;102506;-50
2022/10/31 10:10:14;;;;;;;78.10;73.78;;;;;;;15.89;73.21;101361.31;4985150;28;103964;-50
2022/10/31 10:13:15;;;;;;;75.22;71.05;;;;;;;15.89;73.13;101366.81;4992031;28;102619;-50
2022/10/31 10:16:08;;;;;;;76.65;72.53;;;;;;;15.90;72.87;101367.63;4978871;28;102359;-50
2022/10/31 10:18:50;;;;;;;82.43;77.68;;;;;;;15.90;73.10;101376.66;4991129;28;103278;-49
2022/10/31 10:21:31;;;;;;;73.78;69.70;;;;;;;15.89;73.13;101375.03;4990683;28;103968;-50
2022/10/31 10:24:12;;;;;;;76.90;72.78;;;;;;;15.89;72.91;101375.03;4990588;28;102104;-51
2022/10/31 10:26:43;;;;;;;73.78;69.72;;;;;;;15.89;72.89;101375.03;4992750;28;102638;-50
2022/10/31 10:29:24;;;;;;;83.75;79.10;;;;;;;15.89;72.96;101368.75;4991138;28;102393;-50
2022/10/31 10:31:55;;;;;;;74.13;69.95;;;;;;;15.89;73.05;101375.03;4991835;28;108151;-50
2022/10/31 10:34:27;;;;;;;75.90;71.57;;;;;;;15.88;72.83;101378.09;4985979;28;102093;-50
2022/10/31 10:37:00;;;;;;;78.18;73.68;;;;;;;15.86;73.13;101381.09;4996586;28;104546;-50
2022/10/31 10:39:32;;;;;;;71.38;67.45;;;;;;;15.86;72.51;101375.63;4998388;28;102276;-50
2022/10/31 10:47:41;;;;;;;73.63;69.47;;;;;;;15.85;72.62;101379.47;4983922;28;102769;-50
2022/10/31 10:50:15;;;;;;;79.25;74.95;;;;;;;15.83;72.64;101371.53;4996633;28;102319;-50
2022/10/31 10:52:49;;;;;;;71.07;67.13;;;;;;;15.84;73.08;101377.84;4983200;28;103848;-50
2022/10/31 10:55:28;;;;;;;75.10;71.00;;;;;;;15.83;72.67;101373.44;4989369;28;102238;-50
2022/10/31 10:57:58;;;;;;;71.70;67.70;;;;;;;15.83;72.18;101367.97;4988207;28;102524;-50
2022/10/31 11:00:26;;;;;;;73.88;69.93;;;;;;;15.83;72.46;101376.19;4990723;28;103725;-50
2022/10/31 11:02:54;;;;;;;72.55;68.55;;;;;;;15.81;72.61;101375.69;4991322;28;104003;-50
2022/10/31 11:05:29;;;;;;;66.65;63.00;;;;;;;15.82;71.98;101386.34;5007881;28;103438;-50
2022/10/31 11:07:56;;;;;;;69.15;65.30;;;;;;;15.81;72.41;101387.47;4989052;28;102050;-50
2022/10/31 11:10:23;;;;;;;68.45;64.80;;;;;;;15.81;71.78;101379.25;4982234;28;102490;-50
2022/10/31 11:13:21;;;;;;;74.25;70.03;;;;;;;15.81;71.97;101378.44;4993741;28;104112;-49
2022/10/31 11:15:53;;;;;;;68.30;64.53;;;;;;;15.80;72.00;101385.03;4981138;28;101974;-50
2022/10/31 11:18:24;;;;;;;76.03;71.93;;;;;;;15.79;72.06;101375.94;4986895;28;103750;-50
2022/10/31 11:20:53;;;;;;;71.45;67.68;;;;;;;15.80;72.02;101374.88;4994711;28;102375;-50